Time;durP1;ratioP1;P1;durP2;ratioP2;P2;SDS_P1;SDS_P2;PMS_P1;PMS_P2;Temp;Humidity;BMP_temperature;BMP_pressure;BME280_temperature;BME280_humidity;BME280_pressure;Samples;Min_cycle;Max_cycle;Signal;HPM_P1;HPM_P2
2023/09/30 00:00:45;;;;;;;0.60;0.60;;;;;;;;;;5035081;28;20199;-82
2023/09/30 00:03:14;;;;;;;0.40;0.40;;;;;;;;;;5035023;28;20432;-82
2023/09/30 00:05:44;;;;;;;0.63;0.63;;;;;;;;;;5035396;28;20206;-82
2023/09/30 00:08:12;;;;;;;1.27;1.17;;;;;;;;;;5035075;28;20203;-82
2023/09/30 00:10:41;;;;;;;1.83;1.20;;;;;;;;;;5034891;28;20225;-82
2023/09/30 00:13:09;;;;;;;3.57;2.37;;;;;;;;;;5034730;28;20195;-84
2023/09/30 00:15:38;;;;;;;0.40;0.40;;;;;;;;;;5035510;28;20209;-84
2023/09/30 00:18:06;;;;;;;6.27;2.13;;;;;;;;;;5035279;28;20213;-82
2023/09/30 00:20:35;;;;;;;2.40;1.67;;;;;;;;;;5034405;28;20252;-82
2023/09/30 00:23:05;;;;;;;0.43;0.43;;;;;;;;;;5034791;28;20264;-82
2023/09/30 00:25:34;;;;;;;7.77;2.53;;;;;;;;;;5034941;28;20202;-82
2023/09/30 00:28:03;;;;;;;4.33;1.77;;;;;;;;;;5034915;28;20213;-82
2023/09/30 00:30:31;;;;;;;11.73;2.77;;;;;;;;;;5034194;28;20225;-82
2023/09/30 00:33:00;;;;;;;6.13;1.50;;;;;;;;;;5034660;28;20202;-84
2023/09/30 00:35:29;;;;;;;3.07;2.33;;;;;;;;;;5034454;28;20254;-84
2023/09/30 00:37:57;;;;;;;0.40;0.40;;;;;;;;;;5034852;28;20214;-83
2023/09/30 00:40:27;;;;;;;0.50;0.50;;;;;;;;;;5034447;28;20213;-84
2023/09/30 00:42:56;;;;;;;0.40;0.40;;;;;;;;;;5034150;28;20206;-83
2023/09/30 00:45:24;;;;;;;0.40;0.40;;;;;;;;;;5034202;28;20221;-84
2023/09/30 00:47:53;;;;;;;0.50;0.50;;;;;;;;;;5034410;28;20296;-84
2023/09/30 00:50:22;;;;;;;0.60;0.60;;;;;;;;;;5033690;28;20212;-85
2023/09/30 00:52:51;;;;;;;0.40;0.40;;;;;;;;;;5034040;28;20205;-84
2023/09/30 00:55:21;;;;;;;0.40;0.40;;;;;;;;;;5034188;28;20346;-84
2023/09/30 00:57:51;;;;;;;0.40;0.40;;;;;;;;;;5033842;28;20194;-84
2023/09/30 01:00:21;;;;;;;0.40;0.40;;;;;;;;;;5034208;28;20202;-82
2023/09/30 01:02:49;;;;;;;1.07;1.07;;;;;;;;;;5034212;28;20237;-82
2023/09/30 01:05:18;;;;;;;1.67;1.67;;;;;;;;;;5034109;28;20214;-84
2023/09/30 01:07:46;;;;;;;0.40;0.40;;;;;;;;;;5033699;28;20252;-83
2023/09/30 01:10:15;;;;;;;0.40;0.40;;;;;;;;;;5033995;28;20223;-82
2023/09/30 01:12:44;;;;;;;0.40;0.40;;;;;;;;;;5034178;28;20203;-82
2023/09/30 01:15:14;;;;;;;0.40;0.40;;;;;;;;;;5033877;28;20205;-82
2023/09/30 01:17:42;;;;;;;0.40;0.40;;;;;;;;;;5033652;28;20230;-82
2023/09/30 01:20:12;;;;;;;0.40;0.40;;;;;;;;;;5033577;28;20203;-82
2023/09/30 01:22:45;;;;;;;0.40;0.40;;;;;;;;;;5033953;28;20228;-82
2023/09/30 01:25:14;;;;;;;0.40;0.40;;;;;;;;;;5033581;28;20207;-82
2023/09/30 01:27:42;;;;;;;0.40;0.40;;;;;;;;;;5033681;28;20202;-82
2023/09/30 01:30:13;;;;;;;10.00;1.13;;;;;;;;;;5033890;28;20229;-82
2023/09/30 01:32:42;;;;;;;0.73;0.73;;;;;;;;;;5034002;28;20214;-82
2023/09/30 01:35:11;;;;;;;0.40;0.40;;;;;;;;;;5032874;28;20256;-82
2023/09/30 01:37:40;;;;;;;0.30;0.30;;;;;;;;;;5033312;28;20203;-81
2023/09/30 01:40:11;;;;;;;0.40;0.40;;;;;;;;;;5033378;28;20196;-82
2023/09/30 01:42:40;;;;;;;0.30;0.30;;;;;;;;;;5033474;28;20209;-82
2023/09/30 01:45:10;;;;;;;0.30;0.30;;;;;;;;;;5032989;28;20203;-82
2023/09/30 01:47:38;;;;;;;0.40;0.40;;;;;;;;;;5033926;28;20249;-82
2023/09/30 01:50:07;;;;;;;0.40;0.40;;;;;;;;;;5033394;28;20241;-82
2023/09/30 01:52:36;;;;;;;0.40;0.40;;;;;;;;;;5033061;28;20196;-82
2023/09/30 01:55:04;;;;;;;0.40;0.40;;;;;;;;;;5032784;28;20203;-81
2023/09/30 01:57:34;;;;;;;0.40;0.40;;;;;;;;;;5033057;28;20233;-82
2023/09/30 02:00:04;;;;;;;0.40;0.40;;;;;;;;;;5033063;28;20199;-82
2023/09/30 02:02:32;;;;;;;0.60;0.60;;;;;;;;;;5032844;28;20206;-82
2023/09/30 02:05:01;;;;;;;0.43;0.43;;;;;;;;;;5032378;28;20202;-82
2023/09/30 02:07:30;;;;;;;0.67;0.67;;;;;;;;;;5033073;28;20197;-82
2023/09/30 02:09:59;;;;;;;0.93;0.93;;;;;;;;;;5032929;28;20229;-82
2023/09/30 02:12:28;;;;;;;0.60;0.60;;;;;;;;;;5032519;28;20206;-82
2023/09/30 02:14:59;;;;;;;6.87;3.07;;;;;;;;;;5032858;28;20206;-82
2023/09/30 02:17:27;;;;;;;2.30;1.97;;;;;;;;;;5032831;28;20212;-82
2023/09/30 02:19:56;;;;;;;6.57;3.57;;;;;;;;;;5032608;28;20213;-82
2023/09/30 02:22:24;;;;;;;4.83;2.80;;;;;;;;;;5032214;28;20207;-82
2023/09/30 02:24:54;;;;;;;14.73;1.13;;;;;;;;;;5032750;28;20205;-82
2023/09/30 02:27:22;;;;;;;2.67;1.47;;;;;;;;;;5032474;28;20193;-82
2023/09/30 02:29:51;;;;;;;2.90;1.37;;;;;;;;;;5032358;28;20206;-82
2023/09/30 02:32:22;;;;;;;0.50;0.50;;;;;;;;;;5031995;28;20198;-82
2023/09/30 02:34:51;;;;;;;1.40;1.40;;;;;;;;;;5032459;28;20209;-82
2023/09/30 02:37:20;;;;;;;2.70;2.00;;;;;;;;;;5032454;28;20246;-82
2023/09/30 02:39:48;;;;;;;7.43;3.60;;;;;;;;;;5032302;28;20216;-84
2023/09/30 02:42:17;;;;;;;13.40;3.90;;;;;;;;;;5031745;28;20308;-83
2023/09/30 02:44:46;;;;;;;8.43;3.67;;;;;;;;;;5032924;28;20228;-84
2023/09/30 02:47:14;;;;;;;16.17;3.50;;;;;;;;;;5032259;28;20204;-84
2023/09/30 02:49:44;;;;;;;4.47;2.67;;;;;;;;;;5032558;28;20216;-84
2023/09/30 02:52:13;;;;;;;7.97;5.33;;;;;;;;;;5031855;28;20228;-84
2023/09/30 02:54:41;;;;;;;6.03;4.43;;;;;;;;;;5032461;28;20198;-84
2023/09/30 02:57:10;;;;;;;5.80;4.00;;;;;;;;;;5032457;28;20200;-84
2023/09/30 02:59:39;;;;;;;8.40;3.77;;;;;;;;;;5031867;28;20215;-84
2023/09/30 03:02:08;;;;;;;8.40;4.10;;;;;;;;;;5032405;28;20200;-84
2023/09/30 03:04:37;;;;;;;5.70;3.40;;;;;;;;;;5032403;28;20203;-84
2023/09/30 03:07:07;;;;;;;14.13;4.43;;;;;;;;;;5031443;28;20207;-84
2023/09/30 03:09:35;;;;;;;9.53;5.13;;;;;;;;;;5031456;28;20197;-83
2023/09/30 03:12:05;;;;;;;19.00;4.63;;;;;;;;;;5031420;28;20212;-84
2023/09/30 03:14:34;;;;;;;16.07;5.20;;;;;;;;;;5032136;28;20257;-84
2023/09/30 03:17:03;;;;;;;8.07;4.13;;;;;;;;;;5031707;28;20203;-84
2023/09/30 03:19:32;;;;;;;7.87;4.70;;;;;;;;;;5031702;28;20204;-82
2023/09/30 03:22:04;;;;;;;8.70;5.17;;;;;;;;;;5031879;28;20203;-82
2023/09/30 03:24:35;;;;;;;8.97;4.87;;;;;;;;;;5032040;28;20207;-81
2023/09/30 03:27:03;;;;;;;5.03;2.97;;;;;;;;;;5031551;28;20216;-82
2023/09/30 03:29:32;;;;;;;6.33;4.07;;;;;;;;;;5031608;28;20203;-82
2023/09/30 03:32:01;;;;;;;9.30;3.80;;;;;;;;;;5031352;28;20288;-81
2023/09/30 03:34:29;;;;;;;1.40;1.40;;;;;;;;;;5031490;28;20290;-82
2023/09/30 03:36:59;;;;;;;10.47;3.97;;;;;;;;;;5031038;28;20296;-82
2023/09/30 03:39:28;;;;;;;6.60;3.67;;;;;;;;;;5032045;28;20209;-82
2023/09/30 03:41:59;;;;;;;4.03;3.00;;;;;;;;;;5031553;28;20193;-81
2023/09/30 03:44:28;;;;;;;6.33;4.43;;;;;;;;;;5031524;28;20215;-82
2023/09/30 03:46:59;;;;;;;6.67;4.90;;;;;;;;;;5031019;28;20265;-82
2023/09/30 03:49:30;;;;;;;7.43;4.47;;;;;;;;;;5031786;28;20224;-82
2023/09/30 03:51:58;;;;;;;5.53;3.83;;;;;;;;;;5031174;28;20225;-82
2023/09/30 03:54:27;;;;;;;3.77;3.27;;;;;;;;;;5031077;28;20205;-82
2023/09/30 03:56:55;;;;;;;3.63;3.23;;;;;;;;;;5031210;28;20202;-82
2023/09/30 03:59:26;;;;;;;4.53;3.73;;;;;;;;;;5031590;28;20207;-82
2023/09/30 04:01:54;;;;;;;11.73;5.57;;;;;;;;;;5031264;28;20192;-82
2023/09/30 04:04:23;;;;;;;4.97;3.17;;;;;;;;;;5031315;28;20205;-82
2023/09/30 04:06:51;;;;;;;9.83;4.60;;;;;;;;;;5031113;28;20201;-81
2023/09/30 04:09:20;;;;;;;3.63;2.40;;;;;;;;;;5031880;28;20263;-84
2023/09/30 04:11:49;;;;;;;4.80;1.07;;;;;;;;;;5031088;28;20279;-84
2023/09/30 04:14:18;;;;;;;1.70;1.60;;;;;;;;;;5031084;28;20231;-84
2023/09/30 04:16:48;;;;;;;9.70;5.07;;;;;;;;;;5031501;28;20318;-84
2023/09/30 04:19:16;;;;;;;8.93;5.53;;;;;;;;;;5034464;28;20212;-84
2023/09/30 04:21:45;;;;;;;8.03;4.93;;;;;;;;;;5034609;28;20215;-84
2023/09/30 04:24:14;;;;;;;11.57;6.00;;;;;;;;;;5035039;28;20212;-83
2023/09/30 04:26:42;;;;;;;10.07;4.97;;;;;;;;;;5035372;28;20204;-83
2023/09/30 04:29:11;;;;;;;12.43;6.37;;;;;;;;;;5035050;28;20212;-82
2023/09/30 04:31:41;;;;;;;14.27;6.50;;;;;;;;;;5034445;28;20286;-82
2023/09/30 04:34:11;;;;;;;8.87;6.10;;;;;;;;;;5034659;28;20200;-82
2023/09/30 04:36:40;;;;;;;9.47;5.17;;;;;;;;;;5034412;28;20239;-82
2023/09/30 04:39:10;;;;;;;9.63;3.83;;;;;;;;;;5034603;28;20208;-82
2023/09/30 04:41:41;;;;;;;7.67;3.23;;;;;;;;;;5034304;28;20272;-84
2023/09/30 04:44:11;;;;;;;7.53;3.57;;;;;;;;;;5034582;28;20246;-84
2023/09/30 04:46:40;;;;;;;8.63;4.40;;;;;;;;;;5034667;28;20201;-84
2023/09/30 04:49:09;;;;;;;8.23;4.30;;;;;;;;;;5035028;28;20203;-84
2023/09/30 04:51:39;;;;;;;2.63;2.37;;;;;;;;;;5033934;28;20230;-84
2023/09/30 04:54:08;;;;;;;3.30;2.17;;;;;;;;;;5034838;28;20204;-84
2023/09/30 04:56:36;;;;;;;0.40;0.40;;;;;;;;;;5034857;28;20235;-83
2023/09/30 04:59:05;;;;;;;0.77;0.77;;;;;;;;;;5034560;28;20196;-84
2023/09/30 05:01:34;;;;;;;8.53;2.63;;;;;;;;;;5034317;28;20223;-84
2023/09/30 05:04:02;;;;;;;6.20;3.83;;;;;;;;;;5034401;28;20204;-84
2023/09/30 05:06:32;;;;;;;9.73;4.30;;;;;;;;;;5034083;28;20210;-84
2023/09/30 05:09:02;;;;;;;12.37;6.83;;;;;;;;;;5033789;28;20202;-84
2023/09/30 05:11:31;;;;;;;10.40;5.93;;;;;;;;;;5033596;28;20193;-82
2023/09/30 05:13:59;;;;;;;10.87;6.50;;;;;;;;;;5034199;28;20266;-82
2023/09/30 05:16:29;;;;;;;11.27;5.80;;;;;;;;;;5034115;28;20215;-82
2023/09/30 05:18:58;;;;;;;19.40;6.53;;;;;;;;;;5033549;28;20246;-82
2023/09/30 05:21:26;;;;;;;10.80;4.70;;;;;;;;;;5033947;28;20242;-82
2023/09/30 05:23:56;;;;;;;7.00;4.23;;;;;;;;;;5034330;28;20230;-82
2023/09/30 05:26:26;;;;;;;6.57;4.77;;;;;;;;;;5034022;28;20199;-82
2023/09/30 05:28:55;;;;;;;6.33;4.37;;;;;;;;;;5033337;28;20212;-82
2023/09/30 05:31:23;;;;;;;11.93;5.77;;;;;;;;;;5033470;28;20234;-81
2023/09/30 05:33:52;;;;;;;8.00;4.17;;;;;;;;;;5034066;28;20199;-83
2023/09/30 05:36:21;;;;;;;4.23;2.47;;;;;;;;;;5033303;28;20249;-83
2023/09/30 05:38:49;;;;;;;7.60;4.03;;;;;;;;;;5033476;28;20200;-83
2023/09/30 05:41:20;;;;;;;8.10;5.50;;;;;;;;;;5033659;28;20209;-81
2023/09/30 05:43:50;;;;;;;10.20;5.13;;;;;;;;;;5033644;28;20203;-81
2023/09/30 05:46:19;;;;;;;3.90;3.23;;;;;;;;;;5033250;28;20219;-81
2023/09/30 05:48:47;;;;;;;9.60;5.77;;;;;;;;;;5033143;28;20200;-81
2023/09/30 05:51:16;;;;;;;9.30;5.27;;;;;;;;;;5033722;28;20235;-81
2023/09/30 05:53:45;;;;;;;7.90;5.23;;;;;;;;;;5033387;28;20283;-81
2023/09/30 05:56:15;;;;;;;8.63;4.70;;;;;;;;;;5033216;28;20259;-81
2023/09/30 05:58:44;;;;;;;14.20;6.40;;;;;;;;;;5033230;28;20200;-81
2023/09/30 06:01:14;;;;;;;7.57;4.97;;;;;;;;;;5033598;28;20268;-81
2023/09/30 06:03:42;;;;;;;8.57;5.73;;;;;;;;;;5033202;28;20203;-82
2023/09/30 06:06:15;;;;;;;11.40;5.03;;;;;;;;;;5032848;28;20200;-81
2023/09/30 06:08:45;;;;;;;11.33;5.63;;;;;;;;;;5033411;28;20210;-81
2023/09/30 06:11:18;;;;;;;10.07;5.87;;;;;;;;;;5033204;28;20265;-81
2023/09/30 06:13:47;;;;;;;8.70;6.43;;;;;;;;;;5032634;28;20219;-81
2023/09/30 06:16:17;;;;;;;10.97;5.97;;;;;;;;;;5032655;28;20263;-83
2023/09/30 06:18:46;;;;;;;16.67;6.70;;;;;;;;;;5033143;28;20206;-83
2023/09/30 06:21:17;;;;;;;9.83;5.93;;;;;;;;;;5033243;28;20211;-83
2023/09/30 06:23:46;;;;;;;8.03;4.37;;;;;;;;;;5032567;28;20231;-83
2023/09/30 06:26:15;;;;;;;11.57;6.00;;;;;;;;;;5032918;28;20214;-83
2023/09/30 06:28:44;;;;;;;10.67;5.37;;;;;;;;;;5032895;28;20207;-83
2023/09/30 06:31:13;;;;;;;10.17;5.33;;;;;;;;;;5032422;28;20200;-83
2023/09/30 06:33:43;;;;;;;11.40;6.30;;;;;;;;;;5031958;28;20219;-83
2023/09/30 06:36:13;;;;;;;6.57;3.67;;;;;;;;;;5032438;28;20245;-82
2023/09/30 06:38:43;;;;;;;19.20;7.07;;;;;;;;;;5032993;28;20199;-83
2023/09/30 06:41:16;;;;;;;5.80;3.73;;;;;;;;;;5031456;28;20203;-84
2023/09/30 06:43:46;;;;;;;6.50;2.93;;;;;;;;;;5032189;28;20196;-83
2023/09/30 06:46:15;;;;;;;7.00;5.23;;;;;;;;;;5032635;28;20199;-83
2023/09/30 06:48:45;;;;;;;8.87;4.90;;;;;;;;;;5032377;28;20198;-83
2023/09/30 06:51:17;;;;;;;4.23;3.07;;;;;;;;;;5031784;28;20207;-84
2023/09/30 06:53:46;;;;;;;13.43;4.67;;;;;;;;;;5032142;28;20237;-83
2023/09/30 06:56:15;;;;;;;3.27;3.00;;;;;;;;;;5032334;28;20203;-83
2023/09/30 06:58:43;;;;;;;8.03;5.07;;;;;;;;;;5032460;28;20204;-83
2023/09/30 07:01:16;;;;;;;9.07;6.00;;;;;;;;;;5031642;28;20211;-81
2023/09/30 07:03:46;;;;;;;10.90;5.83;;;;;;;;;;5032437;28;20200;-81
2023/09/30 07:06:22;;;;;;;9.60;6.03;;;;;;;;;;5032902;28;20279;-82
2023/09/30 07:08:51;;;;;;;10.23;5.00;;;;;;;;;;5032209;28;20291;-81
2023/09/30 07:11:29;;;;;;;9.60;5.40;;;;;;;;;;5031413;28;20204;-81
2023/09/30 07:13:57;;;;;;;6.40;4.00;;;;;;;;;;5031659;28;20217;-81
2023/09/30 07:16:26;;;;;;;5.87;3.13;;;;;;;;;;5032192;28;20201;-81
2023/09/30 07:18:56;;;;;;;5.33;3.87;;;;;;;;;;5031786;28;20213;-81
2023/09/30 07:21:25;;;;;;;7.50;3.97;;;;;;;;;;5031913;28;20198;-81
2023/09/30 07:23:53;;;;;;;8.93;4.20;;;;;;;;;;5031881;28;20197;-81
2023/09/30 07:26:25;;;;;;;8.50;4.47;;;;;;;;;;5032008;28;20214;-82
2023/09/30 07:28:54;;;;;;;5.60;3.33;;;;;;;;;;5031336;28;20201;-81
2023/09/30 07:31:23;;;;;;;7.47;4.93;;;;;;;;;;5031321;28;20229;-81
2023/09/30 07:33:52;;;;;;;10.10;6.00;;;;;;;;;;5032109;28;20222;-81
2023/09/30 07:36:22;;;;;;;10.53;3.90;;;;;;;;;;5031346;28;20245;-81
2023/09/30 07:38:52;;;;;;;3.87;3.33;;;;;;;;;;5031503;28;20233;-81
2023/09/30 07:41:21;;;;;;;9.27;4.00;;;;;;;;;;5031329;28;20262;-85
2023/09/30 07:43:49;;;;;;;6.23;3.03;;;;;;;;;;5031659;28;20230;-83
2023/09/30 07:46:18;;;;;;;6.87;3.10;;;;;;;;;;5031558;28;20204;-83
2023/09/30 07:48:47;;;;;;;6.27;3.03;;;;;;;;;;5031289;28;20210;-82
2023/09/30 07:51:15;;;;;;;2.07;1.70;;;;;;;;;;5031603;28;20297;-83
2023/09/30 07:53:45;;;;;;;5.93;3.67;;;;;;;;;;5034555;28;20222;-83
2023/09/30 07:56:15;;;;;;;1.10;1.03;;;;;;;;;;5035398;28;20209;-83
2023/09/30 07:58:43;;;;;;;6.33;2.27;;;;;;;;;;5035286;28;20206;-84
2023/09/30 08:01:11;;;;;;;5.70;3.53;;;;;;;;;;5035368;28;20214;-83
2023/09/30 08:03:40;;;;;;;2.27;2.07;;;;;;;;;;5035533;28;20227;-84
2023/09/30 08:06:09;;;;;;;1.23;1.23;;;;;;;;;;5034991;28;20209;-82
2023/09/30 08:08:38;;;;;;;1.20;1.20;;;;;;;;;;5035098;28;20198;-82
2023/09/30 08:11:08;;;;;;;9.37;3.30;;;;;;;;;;5035387;28;20203;-82
2023/09/30 08:13:37;;;;;;;0.80;0.80;;;;;;;;;;5035364;28;20227;-82
2023/09/30 08:16:07;;;;;;;0.30;0.30;;;;;;;;;;5035090;28;20205;-81
2023/09/30 08:18:35;;;;;;;0.30;0.30;;;;;;;;;;5035806;28;20206;-82
2023/09/30 08:21:04;;;;;;;3.90;1.73;;;;;;;;;;5035207;28;20227;-82
2023/09/30 08:23:33;;;;;;;3.70;1.63;;;;;;;;;;5035143;28;20201;-82
2023/09/30 08:26:02;;;;;;;2.13;1.70;;;;;;;;;;5034788;28;20244;-81
2023/09/30 08:28:31;;;;;;;0.67;0.67;;;;;;;;;;5035573;28;20202;-82
2023/09/30 08:31:04;;;;;;;0.83;0.83;;;;;;;;;;5035392;28;20218;-82
2023/09/30 08:33:33;;;;;;;11.97;2.40;;;;;;;;;;5034974;28;20251;-82
2023/09/30 08:36:06;;;;;;;0.23;0.23;;;;;;;;;;5034552;28;20239;-82
2023/09/30 08:38:35;;;;;;;1.50;1.40;;;;;;;;;;5035325;28;20208;-82
2023/09/30 08:41:04;;;;;;;0.30;0.30;;;;;;;;;;5035018;28;20297;-81
2023/09/30 08:43:38;;;;;;;0.40;0.40;;;;;;;;;;5034927;28;20202;-82
2023/09/30 08:46:07;;;;;;;0.30;0.30;;;;;;;;;;5034803;28;20202;-82
2023/09/30 08:48:36;;;;;;;0.37;0.37;;;;;;;;;;5035064;28;20322;-81
2023/09/30 08:51:05;;;;;;;1.60;1.50;;;;;;;;;;5034817;28;20222;-81
2023/09/30 08:53:33;;;;;;;1.37;1.07;;;;;;;;;;5034580;28;20219;-82
2023/09/30 08:56:07;;;;;;;4.73;1.40;;;;;;;;;;5035491;28;20207;-82
2023/09/30 08:58:38;;;;;;;0.20;0.20;;;;;;;;;;5034949;28;20200;-82
2023/09/30 09:01:09;;;;;;;2.00;0.50;;;;;;;;;;5034090;28;20203;-82
2023/09/30 09:03:38;;;;;;;4.00;1.37;;;;;;;;;;5034167;28;20246;-82
2023/09/30 09:06:07;;;;;;;0.40;0.40;;;;;;;;;;5033630;28;20239;-82
2023/09/30 09:08:36;;;;;;;1.20;1.03;;;;;;;;;;5034256;28;20207;-82
2023/09/30 09:11:05;;;;;;;1.17;0.90;;;;;;;;;;5033538;28;20208;-81
2023/09/30 09:13:49;;;;;;;0.37;0.37;;;;;;;;;;5034522;28;20199;-81
2023/09/30 09:16:19;;;;;;;0.43;0.43;;;;;;;;;;5034029;28;20199;-82
2023/09/30 09:18:48;;;;;;;0.50;0.50;;;;;;;;;;5034222;28;20204;-82
2023/09/30 09:21:17;;;;;;;0.67;0.67;;;;;;;;;;5032998;28;20301;-82
2023/09/30 09:23:46;;;;;;;0.30;0.30;;;;;;;;;;5034142;28;20217;-82
2023/09/30 09:26:18;;;;;;;1.07;0.70;;;;;;;;;;5034489;28;20199;-82
2023/09/30 09:28:48;;;;;;;1.20;0.87;;;;;;;;;;5033663;28;20212;-82
2023/09/30 09:31:23;;;;;;;2.37;0.87;;;;;;;;;;5033133;28;20228;-82
2023/09/30 09:33:53;;;;;;;1.97;1.30;;;;;;;;;;5033782;28;20295;-82
2023/09/30 09:36:21;;;;;;;0.87;0.80;;;;;;;;;;5033881;28;20265;-82
2023/09/30 09:38:53;;;;;;;3.23;1.03;;;;;;;;;;5034223;28;20357;-82
2023/09/30 09:41:22;;;;;;;2.80;2.10;;;;;;;;;;5033618;28;20198;-82
2023/09/30 09:43:52;;;;;;;0.80;0.60;;;;;;;;;;5033611;28;20203;-82
2023/09/30 09:46:20;;;;;;;3.80;1.90;;;;;;;;;;5033879;28;20493;-83
2023/09/30 09:48:49;;;;;;;0.23;0.23;;;;;;;;;;5033258;28;20292;-82
2023/09/30 09:51:17;;;;;;;3.53;1.33;;;;;;;;;;5033489;28;20202;-83
2023/09/30 09:53:46;;;;;;;1.83;0.87;;;;;;;;;;5033409;28;20199;-83
2023/09/30 09:56:17;;;;;;;0.53;0.50;;;;;;;;;;5033274;28;20201;-83
2023/09/30 09:58:46;;;;;;;3.90;1.70;;;;;;;;;;5033068;28;20206;-83
2023/09/30 10:01:16;;;;;;;5.30;1.97;;;;;;;;;;5033344;28;20206;-83
2023/09/30 10:03:45;;;;;;;2.47;0.97;;;;;;;;;;5033276;28;20202;-83
2023/09/30 10:06:17;;;;;;;2.10;1.30;;;;;;;;;;5032773;28;20299;-81
2023/09/30 10:08:47;;;;;;;1.47;0.90;;;;;;;;;;5033048;28;20229;-80
2023/09/30 10:11:18;;;;;;;0.80;0.80;;;;;;;;;;5032298;28;20206;-84
2023/09/30 10:13:51;;;;;;;0.33;0.33;;;;;;;;;;5033437;28;20208;-84
2023/09/30 10:16:41;;;;;;;0.77;0.77;;;;;;;;;;5032711;28;20231;-83
2023/09/30 10:19:12;;;;;;;1.20;0.50;;;;;;;;;;5033101;28;20216;-84
2023/09/30 10:21:40;;;;;;;0.83;0.83;;;;;;;;;;5032663;28;20204;-84
2023/09/30 10:24:33;;;;;;;2.00;1.13;;;;;;;;;;5033175;28;20204;-84
2023/09/30 10:27:20;;;;;;;0.30;0.30;;;;;;;;;;5018121;28;20301;-84
2023/09/30 10:29:49;;;;;;;0.40;0.40;;;;;;;;;;5032749;28;20205;-83
2023/09/30 10:32:17;;;;;;;3.20;0.50;;;;;;;;;;5032343;28;20193;-84
2023/09/30 10:34:52;;;;;;;1.40;0.97;;;;;;;;;;5032268;28;20224;-84
2023/09/30 10:37:24;;;;;;;11.87;1.00;;;;;;;;;;5031746;28;20228;-83
2023/09/30 10:39:57;;;;;;;1.93;1.37;;;;;;;;;;5032832;28;20214;-84
2023/09/30 10:42:44;;;;;;;0.50;0.50;;;;;;;;;;5032436;28;20206;-84
2023/09/30 10:45:27;;;;;;;0.30;0.30;;;;;;;;;;5031998;28;20559;-84
2023/09/30 10:47:56;;;;;;;1.33;1.27;;;;;;;;;;5032076;28;20283;-83
2023/09/30 10:50:42;;;;;;;2.83;0.63;;;;;;;;;;5032492;28;20208;-84
2023/09/30 10:53:12;;;;;;;3.70;0.70;;;;;;;;;;5022066;28;20227;-83
2023/09/30 10:55:42;;;;;;;1.10;1.07;;;;;;;;;;5031688;28;20306;-83
2023/09/30 10:58:10;;;;;;;1.07;1.07;;;;;;;;;;5032879;28;20206;-83
2023/09/30 11:00:41;;;;;;;3.83;1.10;;;;;;;;;;5032190;28;20201;-84
2023/09/30 11:03:12;;;;;;;6.47;1.77;;;;;;;;;;5031521;28;20206;-83
2023/09/30 11:05:41;;;;;;;1.20;1.20;;;;;;;;;;5032609;28;20261;-83
2023/09/30 11:08:17;;;;;;;2.10;0.67;;;;;;;;;;5031966;28;20313;-83
2023/09/30 11:10:50;;;;;;;5.63;1.23;;;;;;;;;;5032036;28;20213;-82
2023/09/30 11:13:19;;;;;;;2.03;0.77;;;;;;;;;;5031035;28;20274;-84
2023/09/30 11:15:48;;;;;;;0.47;0.47;;;;;;;;;;5032069;28;20218;-84
2023/09/30 11:18:17;;;;;;;0.30;0.30;;;;;;;;;;5031497;28;20247;-83
2023/09/30 11:20:46;;;;;;;4.87;2.13;;;;;;;;;;5031522;28;20200;-84
2023/09/30 11:23:17;;;;;;;0.93;0.87;;;;;;;;;;5031073;28;20211;-83
2023/09/30 11:25:46;;;;;;;2.23;0.47;;;;;;;;;;5031971;28;20210;-84
2023/09/30 11:28:15;;;;;;;1.30;1.20;;;;;;;;;;5031466;28;20204;-83
2023/09/30 11:30:56;;;;;;;0.63;0.60;;;;;;;;;;5031650;28;20226;-83
2023/09/30 11:33:25;;;;;;;0.47;0.40;;;;;;;;;;5031639;28;20215;-83
2023/09/30 11:36:03;;;;;;;0.50;0.50;;;;;;;;;;5031959;28;20231;-84
2023/09/30 11:38:34;;;;;;;2.27;0.90;;;;;;;;;;5031346;28;20395;-84
2023/09/30 11:41:03;;;;;;;0.90;0.90;;;;;;;;;;5031088;28;20193;-84
2023/09/30 11:43:32;;;;;;;0.30;0.30;;;;;;;;;;5031689;28;20203;-83
2023/09/30 11:46:08;;;;;;;1.03;0.80;;;;;;;;;;5032011;28;20205;-84
2023/09/30 11:48:37;;;;;;;2.43;1.57;;;;;;;;;;5031475;28;20201;-84
2023/09/30 11:51:06;;;;;;;1.10;0.30;;;;;;;;;;5031338;28;20259;-84
2023/09/30 11:53:37;;;;;;;5.17;1.23;;;;;;;;;;5031529;28;20204;-84
2023/09/30 11:56:08;;;;;;;0.37;0.37;;;;;;;;;;5031630;28;20219;-83
2023/09/30 11:58:39;;;;;;;3.03;2.33;;;;;;;;;;5031161;28;20201;-84
2023/09/30 12:01:11;;;;;;;0.47;0.47;;;;;;;;;;5031248;28;20205;-83
2023/09/30 12:03:40;;;;;;;6.60;1.83;;;;;;;;;;5031586;28;20246;-84
2023/09/30 12:06:13;;;;;;;8.03;1.97;;;;;;;;;;5031391;28;20270;-83
2023/09/30 12:08:43;;;;;;;4.70;1.07;;;;;;;;;;5031185;28;20202;-83
2023/09/30 12:11:15;;;;;;;0.60;0.47;;;;;;;;;;5031609;28;20208;-83
2023/09/30 12:13:45;;;;;;;1.20;0.83;;;;;;;;;;5031272;28;20204;-83
2023/09/30 12:16:13;;;;;;;1.23;0.90;;;;;;;;;;5031055;28;20236;-83
2023/09/30 12:18:42;;;;;;;0.80;0.67;;;;;;;;;;5031587;28;20206;-83
2023/09/30 12:21:11;;;;;;;2.60;1.13;;;;;;;;;;5031472;28;20208;-82
2023/09/30 12:23:40;;;;;;;0.63;0.63;;;;;;;;;;5031786;28;20199;-82
2023/09/30 12:26:11;;;;;;;1.13;0.87;;;;;;;;;;5031223;28;20267;-82
2023/09/30 12:28:44;;;;;;;0.97;0.50;;;;;;;;;;5031380;28;20319;-82
2023/09/30 12:31:13;;;;;;;6.90;2.07;;;;;;;;;;5032010;28;20212;-82
2023/09/30 12:33:42;;;;;;;1.20;1.20;;;;;;;;;;5031860;28;20207;-82
2023/09/30 12:36:12;;;;;;;0.50;0.50;;;;;;;;;;5030886;28;20283;-82
2023/09/30 12:38:41;;;;;;;1.70;1.37;;;;;;;;;;5031488;28;20329;-82
2023/09/30 12:41:11;;;;;;;5.90;1.70;;;;;;;;;;5034504;28;20200;-82
2023/09/30 12:43:41;;;;;;;2.23;1.83;;;;;;;;;;5034992;28;20195;-82
2023/09/30 12:46:13;;;;;;;4.17;0.73;;;;;;;;;;5034685;28;20209;-82
2023/09/30 12:48:41;;;;;;;5.77;1.53;;;;;;;;;;5034664;28;20239;-81
2023/09/30 12:51:10;;;;;;;8.17;1.00;;;;;;;;;;5034891;28;20224;-82
2023/09/30 12:53:38;;;;;;;2.20;0.80;;;;;;;;;;5034498;28;20196;-82
2023/09/30 12:56:07;;;;;;;1.37;1.00;;;;;;;;;;5034440;28;20519;-82
2023/09/30 12:58:38;;;;;;;4.77;1.60;;;;;;;;;;5034694;28;20207;-81
2023/09/30 13:01:07;;;;;;;2.30;1.30;;;;;;;;;;5034623;28;20226;-82
2023/09/30 13:03:51;;;;;;;3.70;1.63;;;;;;;;;;5034118;28;20237;-81
2023/09/30 13:06:20;;;;;;;3.60;2.03;;;;;;;;;;5034400;28;20257;-82
2023/09/30 13:08:49;;;;;;;1.27;0.60;;;;;;;;;;5035375;28;20227;-82
2023/09/30 13:11:17;;;;;;;9.10;2.53;;;;;;;;;;5034609;28;20208;-84
2023/09/30 13:13:47;;;;;;;3.80;1.27;;;;;;;;;;5033536;28;20207;-83
2023/09/30 13:16:16;;;;;;;1.07;1.00;;;;;;;;;;5034021;28;20220;-84
2023/09/30 13:18:45;;;;;;;8.37;2.17;;;;;;;;;;5034501;28;20210;-83
2023/09/30 13:21:16;;;;;;;3.70;1.87;;;;;;;;;;5034004;28;20209;-83
2023/09/30 13:23:45;;;;;;;0.87;0.80;;;;;;;;;;5033716;28;20213;-83
2023/09/30 13:26:13;;;;;;;3.53;1.73;;;;;;;;;;5034010;28;20202;-84
2023/09/30 13:28:42;;;;;;;5.63;1.47;;;;;;;;;;5033890;28;20193;-84
2023/09/30 13:31:12;;;;;;;0.50;0.50;;;;;;;;;;5033764;28;20204;-83
2023/09/30 13:33:40;;;;;;;0.50;0.50;;;;;;;;;;5033184;28;20209;-84
2023/09/30 13:36:10;;;;;;;0.50;0.50;;;;;;;;;;5033757;28;20226;-83
2023/09/30 13:38:38;;;;;;;2.70;2.20;;;;;;;;;;5033978;28;20243;-84
2023/09/30 13:41:07;;;;;;;5.77;2.80;;;;;;;;;;5032749;28;20212;-84
2023/09/30 13:43:35;;;;;;;1.30;1.20;;;;;;;;;;5033312;28;20212;-83
2023/09/30 13:46:06;;;;;;;3.30;1.70;;;;;;;;;;5033573;28;20220;-83
2023/09/30 13:48:37;;;;;;;0.57;0.57;;;;;;;;;;5033540;28;20208;-84
2023/09/30 13:51:06;;;;;;;8.70;1.13;;;;;;;;;;5032456;28;20232;-84
2023/09/30 13:53:35;;;;;;;0.93;0.77;;;;;;;;;;5033218;28;20210;-83
2023/09/30 13:56:04;;;;;;;3.50;1.47;;;;;;;;;;5033426;28;20201;-84
2023/09/30 13:58:33;;;;;;;7.30;1.70;;;;;;;;;;5033140;28;20199;-83
2023/09/30 14:01:01;;;;;;;5.20;1.37;;;;;;;;;;5032968;28;20209;-83
2023/09/30 14:03:30;;;;;;;5.10;1.80;;;;;;;;;;5033529;28;20263;-83
2023/09/30 14:06:01;;;;;;;1.27;0.90;;;;;;;;;;5033586;28;20211;-84
2023/09/30 14:08:30;;;;;;;0.63;0.63;;;;;;;;;;5032717;28;20204;-84
2023/09/30 14:10:59;;;;;;;4.50;1.03;;;;;;;;;;5032789;28;20205;-83
2023/09/30 14:13:27;;;;;;;4.77;1.23;;;;;;;;;;5032901;28;20204;-83
2023/09/30 14:15:57;;;;;;;1.80;1.70;;;;;;;;;;5033037;28;20207;-84
2023/09/30 14:18:26;;;;;;;3.60;2.03;;;;;;;;;;5032405;28;20229;-83
2023/09/30 14:20:54;;;;;;;2.03;0.80;;;;;;;;;;5032995;28;20228;-83
2023/09/30 14:23:24;;;;;;;2.67;2.23;;;;;;;;;;5032607;28;20207;-83
2023/09/30 14:25:56;;;;;;;3.30;1.13;;;;;;;;;;5032667;28;20199;-84
2023/09/30 14:28:25;;;;;;;3.33;1.37;;;;;;;;;;5031920;28;20216;-83
2023/09/30 14:30:53;;;;;;;5.73;1.80;;;;;;;;;;5032593;28;20207;-83
2023/09/30 14:33:22;;;;;;;0.60;0.60;;;;;;;;;;5032492;28;20197;-84
2023/09/30 14:35:50;;;;;;;1.17;1.07;;;;;;;;;;5032443;28;20215;-83
2023/09/30 14:38:19;;;;;;;1.17;1.07;;;;;;;;;;5031750;28;20241;-84
2023/09/30 14:40:49;;;;;;;2.23;1.37;;;;;;;;;;5032750;28;20207;-83
2023/09/30 14:43:19;;;;;;;1.50;1.33;;;;;;;;;;5032407;28;20249;-84
2023/09/30 14:45:47;;;;;;;3.73;1.67;;;;;;;;;;5032079;28;20207;-83
2023/09/30 14:48:16;;;;;;;3.10;1.23;;;;;;;;;;5032215;28;20195;-84
2023/09/30 14:50:53;;;;;;;0.50;0.50;;;;;;;;;;5032445;28;20199;-83
2023/09/30 14:53:21;;;;;;;0.53;0.47;;;;;;;;;;5032764;28;20248;-83
2023/09/30 14:55:51;;;;;;;6.17;2.00;;;;;;;;;;5031846;28;20210;-84